createdAt,value
2023-04-16T00:00:33.210Z,6.30
2023-04-16T00:01:33.211Z,6.27
2023-04-16T00:02:33.263Z,6.30
2023-04-16T00:03:33.362Z,6.27
2023-04-16T00:04:33.276Z,6.27
2023-04-16T00:05:33.211Z,6.30
2023-04-16T00:06:33.141Z,6.28
2023-04-16T00:07:33.155Z,6.31
2023-04-16T00:08:33.141Z,6.33
2023-04-16T00:09:33.142Z,6.34
2023-04-16T00:10:33.121Z,6.33
2023-04-16T00:11:33.105Z,6.31
2023-04-16T00:12:33.119Z,6.33
2023-04-16T00:13:33.102Z,6.33
2023-04-16T00:14:33.069Z,6.36
2023-04-16T00:15:33.068Z,6.36
2023-04-16T00:16:33.122Z,6.36
2023-04-16T00:17:33.121Z,6.36
2023-04-16T00:18:33.025Z,6.34
2023-04-16T00:19:33.020Z,6.36
2023-04-16T00:20:32.999Z,6.37
2023-04-16T00:21:33.002Z,6.36
2023-04-16T00:22:33.015Z,6.36
2023-04-16T00:23:32.980Z,6.36
2023-04-16T00:24:32.956Z,6.34
2023-04-16T00:25:32.972Z,6.31
2023-04-16T00:26:32.944Z,6.34
2023-04-16T00:27:32.958Z,6.31
2023-04-16T00:28:32.932Z,6.34
2023-04-16T00:29:32.929Z,6.36
2023-04-16T00:30:32.922Z,6.36
2023-04-16T00:31:32.904Z,6.34
2023-04-16T00:32:33.693Z,6.34
2023-04-16T00:33:32.887Z,6.34
2023-04-16T00:34:32.862Z,6.36
2023-04-16T00:35:32.891Z,6.36
2023-04-16T00:36:33.657Z,6.31
2023-04-16T00:37:32.846Z,6.37
2023-04-16T00:38:32.818Z,6.37
2023-04-16T00:39:32.832Z,6.34
2023-04-16T00:40:32.794Z,6.37
2023-04-16T00:41:32.948Z,6.34
2023-04-16T00:42:32.786Z,6.36
2023-04-16T00:43:32.782Z,6.34
2023-04-16T00:44:32.759Z,6.34
2023-04-16T00:45:32.788Z,6.34
2023-04-16T00:46:32.799Z,6.36
2023-04-16T00:47:32.769Z,6.33
2023-04-16T00:48:32.718Z,6.33
2023-04-16T00:49:32.713Z,6.33
2023-04-16T00:50:32.692Z,6.31
2023-04-16T00:51:32.697Z,6.33
2023-04-16T00:52:32.705Z,6.31
2023-04-16T00:53:32.665Z,6.31
2023-04-16T00:54:32.659Z,6.28
2023-04-16T00:55:32.663Z,6.25
2023-04-16T00:56:32.625Z,6.30
2023-04-16T00:57:32.630Z,6.28
2023-04-16T00:58:32.612Z,6.25
2023-04-16T00:59:32.747Z,6.25
2023-04-16T01:00:32.600Z,6.27
2023-04-16T01:01:32.643Z,6.25
2023-04-16T01:02:32.658Z,6.22
2023-04-16T01:03:32.791Z,6.21
2023-04-16T01:04:32.612Z,6.19
2023-04-16T01:05:32.551Z,6.22
2023-04-16T01:06:32.544Z,6.21
2023-04-16T01:07:32.528Z,6.21
2023-04-16T01:08:32.509Z,6.22
2023-04-16T01:09:32.506Z,6.25
2023-04-16T01:10:32.484Z,6.22
2023-04-16T01:11:32.518Z,6.27
2023-04-16T01:12:32.504Z,6.22
2023-04-16T01:13:32.464Z,6.27
2023-04-16T01:14:32.454Z,6.27
2023-04-16T01:15:32.477Z,6.27
2023-04-16T01:16:32.440Z,6.25
2023-04-16T01:17:32.452Z,6.30
2023-04-16T01:18:32.418Z,6.30
2023-04-16T01:19:32.419Z,6.30
2023-04-16T01:20:32.395Z,6.31
2023-04-16T01:21:32.398Z,6.31
2023-04-16T01:22:32.381Z,6.36
2023-04-16T01:23:32.375Z,6.33
2023-04-16T01:24:32.345Z,6.37
2023-04-16T01:25:32.352Z,6.36
2023-04-16T01:26:32.332Z,6.36
2023-04-16T01:27:32.339Z,6.36
2023-04-16T01:28:32.339Z,6.33
2023-04-16T01:29:32.316Z,6.33
2023-04-16T01:30:32.294Z,6.33
2023-04-16T01:31:32.369Z,6.31
2023-04-16T01:32:32.309Z,6.33
2023-04-16T01:33:32.269Z,6.36
2023-04-16T01:34:32.247Z,6.33
2023-04-16T01:35:32.243Z,6.34
2023-04-16T01:36:32.241Z,6.37
2023-04-16T01:37:32.240Z,6.38
2023-04-16T01:38:32.210Z,6.38
2023-04-16T01:39:32.218Z,6.38
2023-04-16T01:40:33.005Z,6.38
2023-04-16T01:41:33.011Z,6.41
2023-04-16T01:42:32.166Z,6.41
2023-04-16T01:43:32.161Z,6.38
2023-04-16T01:44:32.253Z,6.37
2023-04-16T01:45:32.147Z,6.38
2023-04-16T01:46:32.221Z,6.41
2023-04-16T01:47:32.158Z,6.38
2023-04-16T01:48:32.104Z,6.40
2023-04-16T01:49:32.913Z,6.40
2023-04-16T01:50:32.090Z,6.41
2023-04-16T01:51:32.086Z,6.40
2023-04-16T01:52:32.072Z,6.41
2023-04-16T01:53:33.461Z,6.41
2023-04-16T01:54:32.048Z,6.41
2023-04-16T01:55:32.049Z,6.41
2023-04-16T01:56:32.025Z,6.44
2023-04-16T01:57:32.019Z,6.43
2023-04-16T01:58:32.000Z,6.41
2023-04-16T01:59:31.996Z,6.44
2023-04-16T02:00:32.018Z,6.43
2023-04-16T02:01:32.056Z,6.46
2023-04-16T02:02:32.082Z,6.46
2023-04-16T02:03:32.407Z,6.46
2023-04-16T02:04:31.930Z,6.46
2023-04-16T02:05:31.948Z,6.46
2023-04-16T02:06:31.922Z,6.44
2023-04-16T02:07:31.919Z,6.46
2023-04-16T02:08:31.898Z,6.44
2023-04-16T02:09:31.901Z,6.41
2023-04-16T02:10:31.882Z,6.37
2023-04-16T02:11:31.876Z,6.30
2023-04-16T02:12:31.875Z,6.21
2023-04-16T02:13:31.861Z,6.17
2023-04-16T02:14:31.852Z,6.12
2023-04-16T02:15:31.840Z,6.11
2023-04-16T02:16:31.860Z,6.08
2023-04-16T02:17:31.883Z,6.06
2023-04-16T02:18:31.800Z,6.01
2023-04-16T02:19:31.811Z,5.97
2023-04-16T02:20:31.774Z,5.94
2023-04-16T02:21:31.795Z,5.96
2023-04-16T02:22:31.750Z,5.96
2023-04-16T02:23:31.758Z,5.94
2023-04-16T02:24:31.733Z,5.91
2023-04-16T02:25:31.811Z,5.91
2023-04-16T02:26:31.712Z,5.91
2023-04-16T02:27:31.715Z,5.90
2023-04-16T02:28:31.685Z,5.89
2023-04-16T02:29:31.692Z,5.89
2023-04-16T02:30:31.663Z,5.85
2023-04-16T02:31:31.784Z,5.83
2023-04-16T02:32:31.672Z,5.79
2023-04-16T02:33:31.642Z,5.76
2023-04-16T02:34:31.645Z,5.75
2023-04-16T02:35:31.620Z,5.74
2023-04-16T02:36:31.609Z,5.72
2023-04-16T02:37:31.610Z,5.74
2023-04-16T02:38:31.592Z,5.75
2023-04-16T02:39:31.607Z,5.75
2023-04-16T02:40:31.562Z,5.75
2023-04-16T02:41:31.565Z,5.74
2023-04-16T02:42:31.542Z,5.72
2023-04-16T02:43:31.550Z,5.72
2023-04-16T02:44:31.529Z,5.74
2023-04-16T02:45:31.689Z,5.75
2023-04-16T02:46:31.530Z,5.75
2023-04-16T02:47:31.516Z,5.72
2023-04-16T02:48:31.489Z,5.72
2023-04-16T02:49:31.489Z,5.72
2023-04-16T02:50:31.464Z,5.71
2023-04-16T02:51:31.460Z,5.74
2023-04-16T02:52:31.439Z,5.74
2023-04-16T02:53:31.443Z,5.72
2023-04-16T02:54:31.434Z,5.74
2023-04-16T02:55:31.424Z,5.74
2023-04-16T02:56:31.408Z,5.75
2023-04-16T02:57:31.396Z,5.72
2023-04-16T02:58:31.377Z,5.75
2023-04-16T02:59:31.383Z,5.76
2023-04-16T03:00:31.361Z,5.76
2023-04-16T03:01:31.416Z,5.75
2023-04-16T03:02:31.415Z,5.74
2023-04-16T03:03:31.339Z,5.74
2023-04-16T03:04:31.338Z,5.74
2023-04-16T03:05:31.321Z,5.71
2023-04-16T03:06:31.300Z,5.65
2023-04-16T03:07:31.330Z,5.65
2023-04-16T03:08:31.289Z,5.65
2023-04-16T03:09:31.271Z,5.65
2023-04-16T03:10:31.256Z,5.67
2023-04-16T03:11:31.255Z,5.68
2023-04-16T03:12:31.234Z,5.65
2023-04-16T03:13:31.242Z,5.65
2023-04-16T03:14:31.210Z,5.68
2023-04-16T03:15:31.235Z,5.67
2023-04-16T03:16:31.184Z,5.68
2023-04-16T03:17:31.218Z,5.68
2023-04-16T03:18:31.172Z,5.68
2023-04-16T03:19:31.177Z,5.74
2023-04-16T03:20:31.161Z,5.74
2023-04-16T03:21:31.157Z,5.76
2023-04-16T03:22:31.138Z,5.76
2023-04-16T03:23:31.605Z,5.76
2023-04-16T03:24:31.110Z,5.76
2023-04-16T03:25:31.142Z,5.74
2023-04-16T03:26:31.107Z,5.68
2023-04-16T03:27:31.105Z,5.63
2023-04-16T03:28:31.074Z,5.63
2023-04-16T03:29:31.072Z,5.63
2023-04-16T03:30:31.064Z,5.64
2023-04-16T03:31:31.146Z,5.64
2023-04-16T03:32:31.082Z,5.65
2023-04-16T03:33:31.846Z,5.63
2023-04-16T03:34:31.013Z,5.63
2023-04-16T03:35:31.008Z,5.58
2023-04-16T03:36:30.995Z,5.58
2023-04-16T03:37:30.989Z,5.58
2023-04-16T03:38:31.000Z,5.63
2023-04-16T03:39:30.967Z,5.61
2023-04-16T03:40:30.953Z,5.61
2023-04-16T03:41:30.956Z,5.61
2023-04-16T03:42:30.937Z,5.60
2023-04-16T03:43:30.930Z,5.60
2023-04-16T03:44:30.906Z,5.61
2023-04-16T03:45:30.912Z,5.64
2023-04-16T03:46:31.009Z,5.63
2023-04-16T03:47:30.946Z,5.64
2023-04-16T03:48:30.870Z,5.65
2023-04-16T03:49:30.864Z,5.65
2023-04-16T03:50:30.849Z,5.63
2023-04-16T03:51:30.899Z,5.63
2023-04-16T03:52:30.825Z,5.63
2023-04-16T03:53:30.840Z,5.60
2023-04-16T03:54:30.819Z,5.60
2023-04-16T03:55:31.623Z,5.60
2023-04-16T03:56:31.594Z,5.60
2023-04-16T03:57:30.792Z,5.57
2023-04-16T03:58:30.763Z,5.61
2023-04-16T03:59:30.773Z,5.64
2023-04-16T04:00:30.744Z,5.63
2023-04-16T04:01:30.746Z,5.64
2023-04-16T04:02:30.890Z,5.63
2023-04-16T04:03:31.016Z,5.61
2023-04-16T04:04:30.877Z,5.61
2023-04-16T04:05:30.865Z,5.61
2023-04-16T04:06:30.697Z,5.60
2023-04-16T04:07:30.681Z,5.64
2023-04-16T04:08:30.677Z,5.61
2023-04-16T04:09:30.680Z,5.63
2023-04-16T04:10:30.647Z,5.61
2023-04-16T04:11:30.644Z,5.58
2023-04-16T04:12:30.637Z,5.61
2023-04-16T04:13:30.609Z,5.60
2023-04-16T04:14:30.622Z,5.60
2023-04-16T04:15:30.588Z,5.60
2023-04-16T04:16:30.680Z,5.63
2023-04-16T04:17:30.603Z,5.61
2023-04-16T04:18:30.578Z,5.63
2023-04-16T04:19:30.576Z,5.63
2023-04-16T04:20:30.559Z,5.64
2023-04-16T04:21:30.529Z,5.63
2023-04-16T04:22:30.533Z,5.61
2023-04-16T04:23:30.508Z,5.58
2023-04-16T04:24:30.519Z,5.64
2023-04-16T04:25:30.486Z,5.61
2023-04-16T04:26:30.592Z,5.60
2023-04-16T04:27:30.471Z,5.60
2023-04-16T04:28:30.496Z,5.60
2023-04-16T04:29:30.454Z,5.61
2023-04-16T04:30:30.451Z,5.63
2023-04-16T04:31:30.486Z,5.63
2023-04-16T04:32:30.497Z,5.61
2023-04-16T04:33:30.419Z,5.61
2023-04-16T04:34:30.399Z,5.64
2023-04-16T04:35:30.391Z,5.64
2023-04-16T04:36:30.402Z,5.64
2023-04-16T04:37:30.427Z,5.63
2023-04-16T04:38:30.388Z,5.64
2023-04-16T04:39:30.342Z,5.61
2023-04-16T04:40:30.353Z,5.65
2023-04-16T04:41:30.335Z,5.63
2023-04-16T04:42:30.353Z,5.63
2023-04-16T04:43:30.303Z,5.63
2023-04-16T04:44:30.318Z,5.61
2023-04-16T04:45:31.924Z,5.64
2023-04-16T04:46:30.282Z,5.65
2023-04-16T04:47:30.302Z,5.64
2023-04-16T04:48:30.276Z,5.64
2023-04-16T04:49:30.244Z,5.63
2023-04-16T04:50:30.242Z,5.65
2023-04-16T04:51:30.216Z,5.65
2023-04-16T04:52:30.244Z,5.65
2023-04-16T04:53:30.195Z,5.64
2023-04-16T04:54:30.562Z,5.63
2023-04-16T04:55:30.188Z,5.63
2023-04-16T04:56:30.176Z,5.67
2023-04-16T04:57:30.158Z,5.65
2023-04-16T04:58:30.173Z,5.64
2023-04-16T04:59:30.230Z,5.67
2023-04-16T05:00:30.141Z,5.68
2023-04-16T05:01:30.181Z,5.67
2023-04-16T05:02:30.161Z,5.67
2023-04-16T05:03:30.170Z,5.67
2023-04-16T05:04:30.128Z,5.68
2023-04-16T05:05:30.082Z,5.68
2023-04-16T05:06:30.090Z,5.67
2023-04-16T05:07:30.069Z,5.68
2023-04-16T05:08:30.077Z,5.67
2023-04-16T05:09:30.043Z,5.68
2023-04-16T05:10:30.041Z,5.65
2023-04-16T05:11:30.024Z,5.65
2023-04-16T05:12:30.042Z,5.65
2023-04-16T05:13:30.011Z,5.65
2023-04-16T05:14:30.007Z,5.67
2023-04-16T05:15:30.022Z,5.71
2023-04-16T05:16:29.995Z,5.71
2023-04-16T05:17:29.993Z,5.71
2023-04-16T05:18:30.788Z,5.72
2023-04-16T05:19:29.936Z,5.72
2023-04-16T05:20:29.941Z,5.71
2023-04-16T05:21:29.948Z,5.72
2023-04-16T05:22:29.919Z,5.74
2023-04-16T05:23:29.929Z,5.74
2023-04-16T05:24:29.955Z,5.78
2023-04-16T05:25:29.879Z,5.76
2023-04-16T05:26:29.924Z,5.74
2023-04-16T05:27:29.861Z,5.74
2023-04-16T05:28:30.100Z,5.76
2023-04-16T05:29:29.844Z,5.75
2023-04-16T05:30:29.856Z,5.74
2023-04-16T05:31:29.827Z,5.74
2023-04-16T05:32:29.835Z,5.74
2023-04-16T05:33:29.807Z,5.72
2023-04-16T05:34:29.815Z,5.74
2023-04-16T05:35:29.872Z,5.75
2023-04-16T05:36:29.781Z,5.75
2023-04-16T05:37:29.760Z,5.75
2023-04-16T05:38:29.747Z,5.78
2023-04-16T05:39:29.960Z,5.76
2023-04-16T05:40:29.729Z,5.78
2023-04-16T05:41:29.756Z,5.82
2023-04-16T05:42:29.715Z,5.83
2023-04-16T05:43:29.709Z,5.83
2023-04-16T05:44:29.683Z,5.83
2023-04-16T05:45:29.678Z,5.81
2023-04-16T05:46:29.734Z,5.82
2023-04-16T05:47:29.670Z,5.85
2023-04-16T05:48:29.641Z,5.85
2023-04-16T05:49:29.626Z,5.81
2023-04-16T05:50:29.645Z,5.81
2023-04-16T05:51:29.606Z,5.81
2023-04-16T05:52:29.626Z,5.83
2023-04-16T05:53:29.596Z,5.85
2023-04-16T05:54:29.591Z,5.85
2023-04-16T05:55:29.567Z,5.90
2023-04-16T05:56:29.585Z,5.90
2023-04-16T05:57:29.549Z,5.90
2023-04-16T05:58:29.555Z,5.93
2023-04-16T05:59:29.539Z,5.93
2023-04-16T06:00:29.564Z,5.97
2023-04-16T06:01:29.499Z,5.96
2023-04-16T06:02:29.598Z,5.97
2023-04-16T06:03:29.572Z,5.99
2023-04-16T06:04:29.491Z,6.01
2023-04-16T06:05:29.564Z,6.06
2023-04-16T06:06:29.468Z,6.06
2023-04-16T06:07:29.440Z,6.04
2023-04-16T06:08:29.446Z,6.08
2023-04-16T06:09:29.433Z,6.06
2023-04-16T06:10:29.497Z,6.08
2023-04-16T06:11:29.402Z,6.09
2023-04-16T06:12:29.409Z,6.14
2023-04-16T06:13:29.381Z,6.15
2023-04-16T06:14:29.407Z,6.12
2023-04-16T06:15:29.387Z,6.12
2023-04-16T06:16:29.388Z,6.14
2023-04-16T06:17:29.403Z,6.14
2023-04-16T06:18:29.338Z,6.12
2023-04-16T06:19:29.318Z,6.11
2023-04-16T06:20:29.368Z,6.14
2023-04-16T06:21:29.303Z,6.11
2023-04-16T06:22:29.298Z,6.18
2023-04-16T06:23:29.276Z,6.19
2023-04-16T06:24:29.281Z,6.25
2023-04-16T06:25:29.264Z,6.25
2023-04-16T06:26:29.258Z,6.33
2023-04-16T06:27:29.240Z,6.38
2023-04-16T06:28:29.245Z,6.46
2023-04-16T06:29:40.357Z,6.46
2023-04-16T06:30:30.237Z,6.43
2023-04-16T06:31:29.209Z,6.49
2023-04-16T06:32:29.238Z,6.54
2023-04-16T06:33:29.176Z,6.51
2023-04-16T06:34:29.179Z,6.54
2023-04-16T06:35:29.161Z,6.52
2023-04-16T06:36:29.174Z,6.54
2023-04-16T06:37:29.139Z,6.40
2023-04-16T06:38:29.143Z,6.25
2023-04-16T06:39:29.285Z,6.30
2023-04-16T06:40:29.113Z,6.34
2023-04-16T06:41:29.112Z,6.37
2023-04-16T06:42:29.090Z,6.40
2023-04-16T06:43:29.082Z,6.36
2023-04-16T06:44:29.076Z,6.41
2023-04-16T06:45:29.058Z,6.36
2023-04-16T06:46:29.134Z,6.36
2023-04-16T06:47:29.048Z,6.37
2023-04-16T06:48:29.829Z,6.36
2023-04-16T06:49:29.011Z,6.38
2023-04-16T06:50:29.020Z,6.40
2023-04-16T06:51:29.039Z,6.44
2023-04-16T06:52:29.147Z,6.52
2023-04-16T06:53:28.979Z,6.51
2023-04-16T06:54:28.975Z,6.49
2023-04-16T06:55:28.951Z,6.54
2023-04-16T06:56:28.955Z,6.58
2023-04-16T06:57:28.935Z,6.69
2023-04-16T06:58:28.953Z,6.76
2023-04-16T06:59:28.907Z,6.81
2023-04-16T07:00:28.925Z,6.77
2023-04-16T07:01:28.928Z,6.66
2023-04-16T07:02:29.028Z,6.59
2023-04-16T07:03:29.106Z,6.62
2023-04-16T07:04:28.912Z,6.62
2023-04-16T07:05:28.858Z,6.54
2023-04-16T07:06:28.854Z,6.51
2023-04-16T07:07:28.828Z,6.48
2023-04-16T07:08:28.834Z,6.49
2023-04-16T07:09:28.809Z,6.52
2023-04-16T07:10:28.816Z,6.55
2023-04-16T07:11:28.792Z,6.62
2023-04-16T07:12:28.788Z,6.69
2023-04-16T07:13:28.765Z,6.73
2023-04-16T07:14:28.764Z,6.79
2023-04-16T07:15:29.012Z,6.81
2023-04-16T07:16:28.792Z,6.80
2023-04-16T07:17:28.796Z,6.79
2023-04-16T07:18:28.728Z,6.77
2023-04-16T07:19:28.862Z,6.74
2023-04-16T07:20:29.513Z,6.73
2023-04-16T07:21:28.693Z,6.71
2023-04-16T07:22:28.699Z,6.80
2023-04-16T07:23:28.663Z,6.88
2023-04-16T07:24:28.678Z,6.89
2023-04-16T07:25:28.650Z,6.92
2023-04-16T07:26:28.644Z,6.81
2023-04-16T07:27:28.638Z,6.81
2023-04-16T07:28:28.619Z,6.81
2023-04-16T07:29:28.602Z,6.87
2023-04-16T07:30:28.609Z,6.91
2023-04-16T07:31:28.656Z,6.87
2023-04-16T07:32:28.601Z,6.79
2023-04-16T07:33:28.562Z,6.76
2023-04-16T07:34:28.559Z,6.79
2023-04-16T07:35:28.552Z,6.80
2023-04-16T07:36:28.559Z,6.80
2023-04-16T07:37:28.542Z,6.74
2023-04-16T07:38:28.520Z,6.79
2023-04-16T07:39:28.494Z,6.76
2023-04-16T07:40:28.648Z,6.81
2023-04-16T07:41:29.192Z,6.74
2023-04-16T07:42:28.475Z,6.74
2023-04-16T07:43:28.472Z,6.71
2023-04-16T07:44:28.455Z,6.77
2023-04-16T07:45:28.437Z,6.77
2023-04-16T07:46:39.308Z,6.77
2023-04-16T07:47:29.452Z,6.79
2023-04-16T07:48:28.415Z,6.84
2023-04-16T07:49:28.395Z,6.85
2023-04-16T07:50:28.392Z,6.85
2023-04-16T07:51:29.179Z,6.95
2023-04-16T07:52:28.405Z,7.02
2023-04-16T07:53:28.352Z,6.97
2023-04-16T07:54:29.202Z,6.92
2023-04-16T07:55:28.347Z,6.91
2023-04-16T07:56:28.333Z,6.91
2023-04-16T07:57:28.308Z,6.95
2023-04-16T07:58:28.319Z,6.94
2023-04-16T07:59:28.417Z,6.98
2023-04-16T08:00:28.287Z,6.92
2023-04-16T08:01:28.272Z,6.88
2023-04-16T08:02:28.444Z,6.84
2023-04-16T08:03:28.483Z,6.85
2023-04-16T08:04:29.152Z,6.85
2023-04-16T08:05:28.263Z,6.85
2023-04-16T08:06:28.236Z,6.87
2023-04-16T08:07:28.221Z,6.89
2023-04-16T08:08:28.196Z,6.89
2023-04-16T08:09:28.190Z,6.97
2023-04-16T08:10:28.183Z,7.02
2023-04-16T08:11:28.170Z,7.05
2023-04-16T08:12:28.175Z,6.97
2023-04-16T08:13:28.146Z,6.98
2023-04-16T08:14:28.143Z,6.95
2023-04-16T08:15:28.173Z,6.98
2023-04-16T08:16:28.248Z,6.98
2023-04-16T08:17:28.124Z,6.97
2023-04-16T08:18:28.113Z,6.98
2023-04-16T08:19:28.096Z,7.03
2023-04-16T08:20:28.092Z,7.05
2023-04-16T08:21:28.057Z,7.10
2023-04-16T08:22:28.075Z,7.07
2023-04-16T08:23:28.080Z,7.06
2023-04-16T08:24:28.029Z,7.13
2023-04-16T08:25:28.028Z,7.15
2023-04-16T08:26:28.010Z,7.17
2023-04-16T08:27:28.012Z,7.23
2023-04-16T08:28:27.985Z,7.27
2023-04-16T08:29:27.990Z,7.23
2023-04-16T08:30:27.968Z,7.21
2023-04-16T08:31:27.976Z,7.23
2023-04-16T08:32:28.783Z,7.30
2023-04-16T08:33:27.952Z,7.39
2023-04-16T08:34:27.953Z,7.31
2023-04-16T08:35:27.935Z,7.32
2023-04-16T08:36:28.146Z,7.35
2023-04-16T08:37:27.910Z,7.30
2023-04-16T08:38:27.880Z,7.30
2023-04-16T08:39:27.881Z,7.35
2023-04-16T08:40:27.869Z,7.35
2023-04-16T08:41:28.689Z,7.32
2023-04-16T08:42:28.646Z,7.35
2023-04-16T08:43:27.838Z,7.42
2023-04-16T08:44:27.822Z,7.48
2023-04-16T08:45:27.819Z,7.58
2023-04-16T08:46:27.840Z,7.64
2023-04-16T08:47:27.834Z,7.58
2023-04-16T08:48:27.780Z,7.55
2023-04-16T08:49:27.777Z,7.55
2023-04-16T08:50:27.762Z,7.50
2023-04-16T08:51:27.751Z,7.48
2023-04-16T08:52:27.736Z,7.45
2023-04-16T08:53:27.737Z,7.53
2023-04-16T08:54:27.969Z,7.60
2023-04-16T08:55:27.802Z,7.49
2023-04-16T08:56:27.701Z,7.37
2023-04-16T08:57:27.930Z,7.32
2023-04-16T08:58:27.683Z,7.15
2023-04-16T08:59:27.670Z,7.24
2023-04-16T09:00:27.680Z,7.31
2023-04-16T09:01:27.672Z,7.40
2023-04-16T09:02:27.822Z,7.40
2023-04-16T09:03:27.783Z,7.42
2023-04-16T09:04:27.777Z,7.50
2023-04-16T09:05:27.644Z,7.49
2023-04-16T09:06:27.603Z,7.55
2023-04-16T09:07:27.592Z,7.67
2023-04-16T09:08:27.568Z,7.79
2023-04-16T09:09:27.567Z,7.93
2023-04-16T09:10:27.543Z,8.04
2023-04-16T09:11:27.544Z,8.02
2023-04-16T09:12:27.522Z,8.08
2023-04-16T09:13:27.639Z,8.10
2023-04-16T09:14:27.502Z,8.19
2023-04-16T09:15:27.504Z,8.23
2023-04-16T09:16:27.537Z,8.22
2023-04-16T09:17:27.544Z,8.20
2023-04-16T09:18:27.461Z,8.22
2023-04-16T09:19:27.465Z,8.16
2023-04-16T09:20:27.459Z,8.00
2023-04-16T09:21:27.439Z,7.75
2023-04-16T09:22:27.419Z,7.71
2023-04-16T09:23:27.427Z,7.67
2023-04-16T09:24:27.391Z,7.77
2023-04-16T09:25:27.401Z,7.77
2023-04-16T09:26:27.388Z,7.74
2023-04-16T09:27:27.377Z,7.64
2023-04-16T09:28:27.349Z,7.61
2023-04-16T09:29:27.347Z,7.53
2023-04-16T09:30:27.371Z,7.40
2023-04-16T09:31:27.429Z,7.39
2023-04-16T09:32:27.342Z,7.43
2023-04-16T09:33:27.317Z,7.30
2023-04-16T09:34:27.292Z,7.40
2023-04-16T09:35:27.329Z,7.48
2023-04-16T09:36:27.270Z,7.49
2023-04-16T09:37:27.265Z,7.52
2023-04-16T09:38:27.243Z,7.61
2023-04-16T09:39:27.244Z,7.72
2023-04-16T09:40:27.340Z,7.83
2023-04-16T09:41:27.244Z,7.93
2023-04-16T09:42:27.218Z,8.01
2023-04-16T09:43:27.215Z,7.95
2023-04-16T09:44:27.190Z,7.77
2023-04-16T09:45:27.185Z,7.69
2023-04-16T09:46:27.198Z,7.69
2023-04-16T09:47:27.214Z,7.72
2023-04-16T09:48:27.150Z,7.72
2023-04-16T09:49:27.156Z,7.67
2023-04-16T09:50:27.137Z,7.63
2023-04-16T09:51:27.131Z,7.68
2023-04-16T09:52:27.099Z,7.74
2023-04-16T09:53:27.108Z,7.80
2023-04-16T09:54:27.085Z,7.85
2023-04-16T09:55:27.091Z,7.71
2023-04-16T09:56:27.063Z,7.60
2023-04-16T09:57:27.064Z,7.55
2023-04-16T09:58:27.072Z,7.61
2023-04-16T09:59:27.049Z,7.74
2023-04-16T10:00:27.026Z,7.75
2023-04-16T10:01:27.028Z,7.79
2023-04-16T10:02:27.041Z,7.83
2023-04-16T10:03:27.118Z,7.75
2023-04-16T10:04:27.012Z,7.83
2023-04-16T10:05:26.981Z,7.83
2023-04-16T10:06:26.957Z,7.83
2023-04-16T10:07:27.082Z,7.82
2023-04-16T10:08:26.939Z,7.80
2023-04-16T10:09:26.942Z,7.82
2023-04-16T10:10:26.934Z,7.89
2023-04-16T10:11:26.934Z,8.02
2023-04-16T10:12:26.896Z,8.00
2023-04-16T10:13:26.898Z,8.05
2023-04-16T10:14:26.881Z,7.97
2023-04-16T10:15:26.885Z,7.98
2023-04-16T10:16:27.002Z,7.95
2023-04-16T10:17:26.870Z,7.89
2023-04-16T10:18:26.835Z,7.97
2023-04-16T10:19:26.827Z,7.95
2023-04-16T10:20:26.823Z,7.98
2023-04-16T10:21:26.820Z,8.02
2023-04-16T10:22:26.794Z,8.08
2023-04-16T10:23:26.792Z,8.01
2023-04-16T10:24:26.779Z,7.95
2023-04-16T10:25:26.910Z,7.90
2023-04-16T10:26:26.748Z,7.85
2023-04-16T10:27:26.752Z,7.75
2023-04-16T10:28:26.723Z,7.68
2023-04-16T10:29:26.728Z,7.71
2023-04-16T10:30:26.711Z,7.74
2023-04-16T10:31:26.767Z,7.80
2023-04-16T10:32:26.717Z,7.68
2023-04-16T10:33:26.679Z,7.68
2023-04-16T10:34:26.661Z,7.49
2023-04-16T10:35:26.659Z,7.52
2023-04-16T10:36:26.686Z,7.57
2023-04-16T10:37:26.639Z,7.52
2023-04-16T10:38:27.431Z,7.50
2023-04-16T10:39:26.613Z,7.68
2023-04-16T10:40:26.685Z,7.92
2023-04-16T10:41:26.603Z,8.19
2023-04-16T10:42:26.569Z,8.36
2023-04-16T10:43:26.574Z,8.48
2023-04-16T10:44:26.549Z,8.58
2023-04-16T10:45:26.581Z,8.52
2023-04-16T10:46:26.815Z,8.47
2023-04-16T10:47:26.551Z,8.73
2023-04-16T10:48:30.798Z,8.84
2023-04-16T10:49:27.523Z,8.92
2023-04-16T10:50:26.492Z,9.02
2023-04-16T10:51:26.493Z,9.08
2023-04-16T10:52:26.472Z,9.13
2023-04-16T10:53:26.498Z,8.92
2023-04-16T10:54:26.463Z,8.79
2023-04-16T10:55:26.449Z,8.91
2023-04-16T10:56:26.439Z,8.98
2023-04-16T10:57:26.424Z,9.11
2023-04-16T10:58:26.409Z,8.89
2023-04-16T10:59:26.409Z,8.91
2023-04-16T11:00:26.507Z,8.89
2023-04-16T11:01:26.465Z,8.98
2023-04-16T11:02:27.755Z,9.02
2023-04-16T11:03:26.605Z,8.96
2023-04-16T11:04:26.429Z,8.98
2023-04-16T11:05:26.352Z,9.10
2023-04-16T11:06:26.330Z,9.05
2023-04-16T11:07:26.319Z,9.04
2023-04-16T11:08:26.467Z,8.80
2023-04-16T11:09:26.300Z,8.68
2023-04-16T11:10:26.284Z,8.70
2023-04-16T11:11:26.285Z,8.55
2023-04-16T11:12:26.257Z,8.59
2023-04-16T11:13:26.263Z,8.77
2023-04-16T11:14:26.245Z,8.70
2023-04-16T11:15:26.252Z,8.76
2023-04-16T11:16:26.494Z,8.81
2023-04-16T11:17:26.246Z,8.86
2023-04-16T11:18:26.193Z,8.83
2023-04-16T11:19:26.204Z,8.71
2023-04-16T11:20:26.181Z,8.59
2023-04-16T11:21:26.787Z,8.63
2023-04-16T11:22:26.168Z,8.68
2023-04-16T11:23:26.160Z,8.52
2023-04-16T11:24:26.372Z,8.40
2023-04-16T11:25:26.135Z,8.37
2023-04-16T11:26:26.307Z,8.38
2023-04-16T11:27:26.131Z,8.40
2023-04-16T11:28:26.088Z,8.45
2023-04-16T11:29:26.085Z,8.52
2023-04-16T11:30:26.088Z,8.58
2023-04-16T11:31:26.136Z,8.55
2023-04-16T11:32:26.135Z,8.61
2023-04-16T11:33:26.049Z,8.59
2023-04-16T11:34:26.019Z,8.65
2023-04-16T11:35:26.033Z,8.61
2023-04-16T11:36:27.479Z,8.53
2023-04-16T11:37:26.010Z,8.59
2023-04-16T11:38:25.990Z,8.65
2023-04-16T11:39:25.981Z,8.70
2023-04-16T11:40:25.962Z,8.74
2023-04-16T11:41:25.960Z,8.73
2023-04-16T11:42:25.982Z,8.53
2023-04-16T11:43:25.941Z,8.58
2023-04-16T11:44:25.917Z,8.59
2023-04-16T11:45:25.916Z,8.66
2023-04-16T11:46:27.836Z,8.73
2023-04-16T11:47:26.053Z,8.65
2023-04-16T11:48:25.893Z,8.73
2023-04-16T11:49:25.885Z,8.84
2023-04-16T11:50:25.884Z,8.99
2023-04-16T11:51:25.944Z,8.95
2023-04-16T11:52:25.845Z,8.86
2023-04-16T11:53:25.840Z,8.86
2023-04-16T11:54:25.865Z,8.96
2023-04-16T11:55:25.824Z,9.05
2023-04-16T11:56:26.757Z,9.13
2023-04-16T11:57:25.805Z,9.18
2023-04-16T11:58:25.786Z,9.15
2023-04-16T11:59:25.786Z,9.20
2023-04-16T12:00:25.758Z,9.20
2023-04-16T12:01:25.753Z,9.21
2023-04-16T12:02:25.927Z,8.95
2023-04-16T12:03:25.896Z,8.80
2023-04-16T12:04:25.787Z,8.80
2023-04-16T12:05:25.714Z,8.86
2023-04-16T12:06:25.702Z,8.80
2023-04-16T12:07:25.697Z,8.77
2023-04-16T12:08:25.688Z,8.70
2023-04-16T12:09:25.666Z,8.61
2023-04-16T12:10:25.654Z,8.61
2023-04-16T12:11:26.301Z,8.50
2023-04-16T12:12:25.631Z,8.55
2023-04-16T12:13:25.648Z,8.59
2023-04-16T12:14:25.610Z,8.63
2023-04-16T12:15:25.612Z,8.79
2023-04-16T12:16:25.622Z,8.87
2023-04-16T12:17:25.612Z,8.94
2023-04-16T12:18:25.607Z,8.96
2023-04-16T12:19:25.567Z,9.05
2023-04-16T12:20:25.552Z,9.08
2023-04-16T12:21:25.552Z,9.08
2023-04-16T12:22:25.522Z,9.11
2023-04-16T12:23:25.530Z,9.13
2023-04-16T12:24:25.522Z,9.32
2023-04-16T12:25:25.516Z,9.42
2023-04-16T12:26:25.483Z,9.33
2023-04-16T12:27:25.484Z,9.18
2023-04-16T12:28:25.456Z,9.08
2023-04-16T12:29:25.459Z,8.98
2023-04-16T12:30:25.446Z,8.84
2023-04-16T12:31:25.500Z,8.92
2023-04-16T12:32:25.429Z,8.96
2023-04-16T12:33:25.427Z,9.04
2023-04-16T12:34:29.118Z,9.14
2023-04-16T12:35:26.399Z,9.26
2023-04-16T12:36:25.386Z,9.28
2023-04-16T12:37:25.378Z,9.29
2023-04-16T12:38:25.382Z,9.31
2023-04-16T12:39:25.668Z,9.35
2023-04-16T12:40:25.351Z,9.38
2023-04-16T12:41:25.331Z,9.17
2023-04-16T12:42:25.326Z,9.01
2023-04-16T12:43:25.891Z,9.04
2023-04-16T12:44:25.321Z,9.13
2023-04-16T12:45:25.283Z,9.18
2023-04-16T12:46:25.332Z,9.18
2023-04-16T12:47:25.293Z,9.26
2023-04-16T12:48:25.263Z,9.21
2023-04-16T12:49:25.252Z,9.20
2023-04-16T12:50:25.241Z,9.28
2023-04-16T12:51:25.222Z,9.32
2023-04-16T12:52:25.228Z,9.51
2023-04-16T12:53:25.203Z,9.78
2023-04-16T12:54:25.201Z,9.93
2023-04-16T12:55:25.189Z,10.05
2023-04-16T12:56:25.182Z,10.04
2023-04-16T12:57:25.163Z,10.17
2023-04-16T12:58:25.164Z,10.20
2023-04-16T12:59:25.135Z,10.33
2023-04-16T13:00:25.140Z,10.42
2023-04-16T13:01:25.184Z,10.38
2023-04-16T13:02:25.325Z,10.32
2023-04-16T13:03:26.177Z,10.15
2023-04-16T13:04:25.976Z,10.23
2023-04-16T13:05:25.094Z,10.05
2023-04-16T13:06:25.088Z,10.05
2023-04-16T13:07:25.060Z,10.15
2023-04-16T13:08:25.069Z,10.14
2023-04-16T13:09:25.037Z,10.09
2023-04-16T13:10:25.044Z,10.11
2023-04-16T13:11:25.023Z,9.96
2023-04-16T13:12:25.028Z,9.90
2023-04-16T13:13:24.997Z,9.89
2023-04-16T13:14:25.000Z,9.87
2023-04-16T13:15:24.986Z,9.91
2023-04-16T13:16:24.994Z,9.89
2023-04-16T13:17:24.984Z,9.99